createdAt,value
2023-02-13T00:00:28.730Z,22.80
2023-02-13T00:01:28.757Z,21.70
2023-02-13T00:02:28.744Z,21.10
2023-02-13T00:03:28.775Z,21.90
2023-02-13T00:04:28.692Z,22.50
2023-02-13T00:05:28.709Z,21.90
2023-02-13T00:06:28.671Z,21.90
2023-02-13T00:07:28.703Z,20.50
2023-02-13T00:08:28.646Z,21.70
2023-02-13T00:09:28.660Z,21.10
2023-02-13T00:10:28.656Z,21.10
2023-02-13T00:11:28.646Z,20.90
2023-02-13T00:12:28.606Z,21.60
2023-02-13T00:13:28.632Z,21.00
2023-02-13T00:14:28.586Z,21.30
2023-02-13T00:15:28.626Z,22.20
2023-02-13T00:16:28.561Z,20.50
2023-02-13T00:17:28.580Z,22.00
2023-02-13T00:18:28.542Z,20.60
2023-02-13T00:19:28.570Z,20.80
2023-02-13T00:20:28.524Z,22.10
2023-02-13T00:21:28.539Z,20.60
2023-02-13T00:22:28.499Z,19.70
2023-02-13T00:23:28.512Z,21.10
2023-02-13T00:24:28.484Z,20.40
2023-02-13T00:25:28.525Z,20.10
2023-02-13T00:26:28.474Z,20.40
2023-02-13T00:27:28.477Z,22.10
2023-02-13T00:28:28.515Z,21.50
2023-02-13T00:29:28.444Z,20.10
2023-02-13T00:30:28.412Z,20.10
2023-02-13T00:31:28.550Z,20.90
2023-02-13T00:32:28.388Z,21.50
2023-02-13T00:33:28.402Z,21.00
2023-02-13T00:34:28.374Z,21.20
2023-02-13T00:35:28.382Z,19.80
2023-02-13T00:36:28.348Z,21.30
2023-02-13T00:37:28.382Z,20.80
2023-02-13T00:38:28.332Z,21.10
2023-02-13T00:39:28.339Z,20.00
2023-02-13T00:40:28.316Z,21.20
2023-02-13T00:41:28.321Z,21.30
2023-02-13T00:42:28.279Z,21.40
2023-02-13T00:43:28.314Z,21.20
2023-02-13T00:44:28.262Z,21.60
2023-02-13T00:45:28.270Z,21.20
2023-02-13T00:46:28.285Z,19.90
2023-02-13T00:47:28.253Z,20.10
2023-02-13T00:48:29.473Z,20.00
2023-02-13T00:49:28.251Z,20.90
2023-02-13T00:50:28.198Z,19.80
2023-02-13T00:51:28.208Z,18.90
2023-02-13T00:52:28.177Z,19.40
2023-02-13T00:53:28.184Z,20.60
2023-02-13T00:54:28.155Z,19.40
2023-02-13T00:55:28.186Z,20.60
2023-02-13T00:56:28.136Z,20.00
2023-02-13T00:57:28.142Z,20.30
2023-02-13T00:58:28.143Z,18.90
2023-02-13T00:59:28.128Z,21.10
2023-02-13T01:00:28.093Z,20.20
2023-02-13T01:01:28.152Z,20.50
2023-02-13T01:02:28.066Z,19.80
2023-02-13T01:03:28.151Z,20.60
2023-02-13T01:04:28.054Z,20.40
2023-02-13T01:05:28.059Z,20.70
2023-02-13T01:06:28.027Z,18.40
2023-02-13T01:07:28.058Z,20.00
2023-02-13T01:08:28.008Z,19.90
2023-02-13T01:09:28.028Z,18.20
2023-02-13T01:10:28.004Z,19.80
2023-02-13T01:11:28.015Z,19.20
2023-02-13T01:12:27.969Z,19.50
2023-02-13T01:13:28.001Z,21.50
2023-02-13T01:14:27.948Z,20.90
2023-02-13T01:15:27.962Z,18.40
2023-02-13T01:16:28.014Z,19.80
2023-02-13T01:17:27.938Z,20.80
2023-02-13T01:18:27.905Z,21.60
2023-02-13T01:19:27.959Z,19.80
2023-02-13T01:20:27.893Z,20.40
2023-02-13T01:21:27.897Z,20.60
2023-02-13T01:22:27.859Z,20.50
2023-02-13T01:23:27.874Z,20.70
2023-02-13T01:24:27.840Z,19.00
2023-02-13T01:25:27.867Z,21.40
2023-02-13T01:26:27.831Z,19.10
2023-02-13T01:27:27.839Z,19.40
2023-02-13T01:28:27.907Z,19.90
2023-02-13T01:29:27.850Z,20.10
2023-02-13T01:30:27.781Z,19.80
2023-02-13T01:31:27.916Z,20.40
2023-02-13T01:32:27.760Z,19.60
2023-02-13T01:33:27.775Z,19.60
2023-02-13T01:34:27.741Z,20.60
2023-02-13T01:35:27.754Z,19.80
2023-02-13T01:36:27.737Z,20.30
2023-02-13T01:37:27.745Z,18.90
2023-02-13T01:38:27.745Z,19.40
2023-02-13T01:39:27.704Z,19.50
2023-02-13T01:40:27.667Z,21.10
2023-02-13T01:41:27.785Z,19.80
2023-02-13T01:42:27.654Z,19.70
2023-02-13T01:43:27.682Z,18.40
2023-02-13T01:44:27.637Z,18.70
2023-02-13T01:45:27.659Z,19.90
2023-02-13T01:46:27.691Z,20.10
2023-02-13T01:47:27.616Z,18.90
2023-02-13T01:48:27.587Z,19.30
2023-02-13T01:49:27.613Z,19.40
2023-02-13T01:50:27.561Z,19.00
2023-02-13T01:51:27.574Z,18.20
2023-02-13T01:52:27.552Z,20.80
2023-02-13T01:53:27.566Z,19.60
2023-02-13T01:54:27.526Z,20.90
2023-02-13T01:55:27.562Z,19.20
2023-02-13T01:56:27.494Z,21.50
2023-02-13T01:57:27.515Z,21.70
2023-02-13T01:58:27.476Z,21.40
2023-02-13T01:59:27.488Z,19.10
2023-02-13T02:00:27.484Z,20.40
2023-02-13T02:01:27.516Z,19.80
2023-02-13T02:02:27.464Z,19.80
2023-02-13T02:03:27.451Z,20.10
2023-02-13T02:04:27.419Z,19.10
2023-02-13T02:05:27.430Z,20.20
2023-02-13T02:06:27.391Z,20.40
2023-02-13T02:07:27.423Z,19.70
2023-02-13T02:08:27.366Z,21.30
2023-02-13T02:09:27.388Z,19.00
2023-02-13T02:10:27.348Z,20.00
2023-02-13T02:11:27.362Z,20.90
2023-02-13T02:12:27.332Z,20.70
2023-02-13T02:13:27.361Z,20.30
2023-02-13T02:14:27.314Z,19.80
2023-02-13T02:15:27.352Z,19.90
2023-02-13T02:16:27.330Z,21.00
2023-02-13T02:17:27.319Z,21.00
2023-02-13T02:18:27.282Z,20.90
2023-02-13T02:19:27.306Z,19.40
2023-02-13T02:20:27.249Z,19.40
2023-02-13T02:21:27.264Z,19.60
2023-02-13T02:22:27.231Z,21.00
2023-02-13T02:23:27.250Z,19.00
2023-02-13T02:24:27.215Z,19.90
2023-02-13T02:25:27.266Z,20.30
2023-02-13T02:26:27.189Z,20.40
2023-02-13T02:27:27.198Z,20.50
2023-02-13T02:28:27.207Z,20.60
2023-02-13T02:29:27.176Z,20.70
2023-02-13T02:30:27.152Z,22.20
2023-02-13T02:31:27.264Z,20.20
2023-02-13T02:32:27.123Z,20.50
2023-02-13T02:33:27.145Z,21.20
2023-02-13T02:34:27.122Z,22.10
2023-02-13T02:35:27.114Z,20.30
2023-02-13T02:36:27.083Z,20.70
2023-02-13T02:37:27.135Z,20.30
2023-02-13T02:38:27.061Z,20.70
2023-02-13T02:39:27.070Z,20.20
2023-02-13T02:40:27.036Z,19.80
2023-02-13T02:41:27.054Z,20.90
2023-02-13T02:42:27.051Z,20.10
2023-02-13T02:43:27.051Z,21.20
2023-02-13T02:44:26.995Z,20.50
2023-02-13T02:45:27.006Z,21.10
2023-02-13T02:46:27.086Z,20.80
2023-02-13T02:47:27.115Z,21.30
2023-02-13T02:48:26.956Z,20.90
2023-02-13T02:49:26.996Z,19.80
2023-02-13T02:50:26.934Z,21.90
2023-02-13T02:51:26.942Z,19.90
2023-02-13T02:52:26.906Z,21.20
2023-02-13T02:53:26.919Z,20.60
2023-02-13T02:54:26.883Z,21.30
2023-02-13T02:55:26.910Z,19.60
2023-02-13T02:56:26.971Z,22.30
2023-02-13T02:57:26.876Z,21.40
2023-02-13T02:58:26.839Z,22.10
2023-02-13T02:59:26.855Z,19.40
2023-02-13T03:00:26.822Z,22.20
2023-02-13T03:01:26.861Z,20.70
2023-02-13T03:02:26.946Z,19.90
2023-02-13T03:03:26.818Z,21.40
2023-02-13T03:04:26.841Z,20.30
2023-02-13T03:05:26.799Z,19.60
2023-02-13T03:06:26.753Z,20.90
2023-02-13T03:07:26.911Z,19.90
2023-02-13T03:08:26.741Z,20.60
2023-02-13T03:09:26.746Z,21.10
2023-02-13T03:10:26.727Z,21.30
2023-02-13T03:11:26.728Z,20.80
2023-02-13T03:12:26.691Z,21.30
2023-02-13T03:13:26.743Z,20.50
2023-02-13T03:14:26.675Z,22.50
2023-02-13T03:15:26.685Z,22.60
2023-02-13T03:16:26.673Z,22.20
2023-02-13T03:17:26.662Z,20.10
2023-02-13T03:18:26.637Z,22.20
2023-02-13T03:19:26.651Z,21.60
2023-02-13T03:20:26.612Z,21.50
2023-02-13T03:21:26.617Z,22.10
2023-02-13T03:22:26.583Z,20.10
2023-02-13T03:23:26.600Z,22.40
2023-02-13T03:24:26.572Z,20.40
2023-02-13T03:25:26.600Z,22.00
2023-02-13T03:26:26.544Z,21.30
2023-02-13T03:27:26.565Z,20.10
2023-02-13T03:28:26.594Z,20.00
2023-02-13T03:29:26.538Z,20.10
2023-02-13T03:30:26.556Z,21.20
2023-02-13T03:31:26.579Z,21.00
2023-02-13T03:32:26.485Z,20.50
2023-02-13T03:33:26.499Z,19.70
2023-02-13T03:34:26.464Z,20.10
2023-02-13T03:35:26.468Z,18.40
2023-02-13T03:36:26.443Z,19.30
2023-02-13T03:37:26.482Z,18.50
2023-02-13T03:38:26.415Z,18.90
2023-02-13T03:39:26.454Z,18.50
2023-02-13T03:40:26.394Z,17.80
2023-02-13T03:41:26.407Z,19.60
2023-02-13T03:42:27.299Z,18.70
2023-02-13T03:43:26.410Z,20.30
2023-02-13T03:44:26.360Z,18.40
2023-02-13T03:45:26.365Z,19.10
2023-02-13T03:46:26.334Z,17.40
2023-02-13T03:47:26.345Z,19.50
2023-02-13T03:48:26.310Z,18.30
2023-02-13T03:49:26.352Z,17.20
2023-02-13T03:50:26.298Z,17.70
2023-02-13T03:51:26.299Z,18.30
2023-02-13T03:52:26.382Z,16.10
2023-02-13T03:53:26.283Z,17.20
2023-02-13T03:54:26.245Z,16.90
2023-02-13T03:55:26.283Z,15.80
2023-02-13T03:56:26.228Z,16.80
2023-02-13T03:57:26.245Z,16.60
2023-02-13T03:58:26.233Z,14.90
2023-02-13T03:59:26.214Z,17.10
2023-02-13T04:00:26.183Z,15.10
2023-02-13T04:01:26.233Z,15.40
2023-02-13T04:02:26.222Z,14.70
2023-02-13T04:03:26.176Z,13.30
2023-02-13T04:04:26.168Z,13.20
2023-02-13T04:05:26.152Z,12.70
2023-02-13T04:06:26.132Z,11.70
2023-02-13T04:07:26.160Z,12.10
2023-02-13T04:08:26.119Z,12.50
2023-02-13T04:09:26.108Z,11.70
2023-02-13T04:10:26.077Z,13.10
2023-02-13T04:11:26.094Z,12.00
2023-02-13T04:12:26.069Z,12.10
2023-02-13T04:13:26.091Z,12.00
2023-02-13T04:14:26.059Z,11.90
2023-02-13T04:15:26.052Z,11.60
2023-02-13T04:16:26.067Z,11.30
2023-02-13T04:17:26.011Z,11.00
2023-02-13T04:18:26.016Z,11.40
2023-02-13T04:19:26.006Z,11.10
2023-02-13T04:20:26.011Z,11.10
2023-02-13T04:21:25.957Z,11.30
2023-02-13T04:22:25.982Z,10.20
2023-02-13T04:23:25.952Z,10.50
2023-02-13T04:24:25.948Z,8.60
2023-02-13T04:25:25.963Z,9.50
2023-02-13T04:26:25.910Z,10.30
2023-02-13T04:27:25.915Z,9.60
2023-02-13T04:28:25.979Z,9.30
2023-02-13T04:29:25.899Z,8.70
2023-02-13T04:30:25.908Z,8.70
2023-02-13T04:31:26.073Z,8.60
2023-02-13T04:32:25.842Z,9.00
2023-02-13T04:33:25.860Z,7.70
2023-02-13T04:36:08.132Z,9.00
2023-02-13T04:36:13.018Z,8.40
2023-02-13T04:37:12.974Z,8.20
2023-02-13T04:38:12.985Z,7.50
2023-02-13T04:39:12.937Z,8.10
2023-02-13T04:40:12.951Z,9.30
2023-02-13T04:41:12.917Z,7.40
2023-02-13T04:42:12.938Z,7.30
2023-02-13T04:43:12.930Z,7.00
2023-02-13T04:44:12.913Z,8.50
2023-02-13T04:45:12.876Z,7.60
2023-02-13T04:46:12.944Z,7.80
2023-02-13T04:47:12.853Z,8.10
2023-02-13T04:48:12.885Z,7.00
2023-02-13T04:49:12.836Z,7.90
2023-02-13T04:50:12.857Z,7.40
2023-02-13T04:51:12.829Z,7.50
2023-02-13T04:52:12.833Z,6.50
2023-02-13T04:53:12.808Z,7.20
2023-02-13T04:54:12.819Z,6.60
2023-02-13T04:55:12.782Z,5.60
2023-02-13T04:56:12.784Z,6.80
2023-02-13T04:57:12.756Z,7.50
2023-02-13T04:58:12.792Z,7.00
2023-02-13T04:59:12.731Z,7.30
2023-02-13T05:00:12.744Z,6.50
2023-02-13T05:01:12.749Z,9.00
2023-02-13T05:02:12.722Z,8.70
2023-02-13T05:03:12.684Z,8.00
2023-02-13T05:04:12.737Z,7.80
2023-02-13T05:05:12.668Z,6.60
2023-02-13T05:06:12.677Z,7.20
2023-02-13T05:07:12.646Z,7.70
2023-02-13T05:08:12.657Z,7.40
2023-02-13T05:09:12.647Z,6.90
2023-02-13T05:10:12.646Z,7.10
2023-02-13T05:11:12.604Z,7.50
2023-02-13T05:12:12.615Z,8.30
2023-02-13T05:13:12.587Z,7.60
2023-02-13T05:14:12.610Z,7.00
2023-02-13T05:15:12.559Z,7.70
2023-02-13T05:16:12.656Z,7.20
2023-02-13T05:17:12.553Z,8.40
2023-02-13T05:18:12.552Z,6.90
2023-02-13T05:19:12.765Z,7.70
2023-02-13T05:20:12.528Z,7.20
2023-02-13T05:21:12.497Z,7.20
2023-02-13T05:22:12.511Z,7.60
2023-02-13T05:23:12.473Z,7.70
2023-02-13T05:24:12.506Z,6.20
2023-02-13T05:25:12.454Z,6.90
2023-02-13T05:26:12.479Z,7.00
2023-02-13T05:27:12.439Z,6.20
2023-02-13T05:28:12.471Z,7.10
2023-02-13T05:29:12.436Z,6.50
2023-02-13T05:30:12.429Z,6.80
2023-02-13T05:31:12.561Z,7.60
2023-02-13T05:32:12.443Z,7.80
2023-02-13T05:33:12.378Z,7.10
2023-02-13T05:34:12.399Z,6.90
2023-02-13T05:35:12.352Z,7.00
2023-02-13T05:36:12.377Z,6.80
2023-02-13T05:37:12.328Z,6.20
2023-02-13T05:38:12.339Z,6.90
2023-02-13T05:39:12.329Z,6.90
2023-02-13T05:40:12.325Z,6.90
2023-02-13T05:41:12.290Z,8.70
2023-02-13T05:42:12.298Z,8.10
2023-02-13T05:43:12.266Z,6.70
2023-02-13T05:44:12.279Z,6.70
2023-02-13T05:45:12.271Z,6.50
2023-02-13T05:46:12.276Z,6.50
2023-02-13T05:47:12.230Z,6.90
2023-02-13T05:48:12.244Z,7.80
2023-02-13T05:49:12.213Z,8.50
2023-02-13T05:50:12.230Z,8.00
2023-02-13T05:51:12.185Z,9.20
2023-02-13T05:52:12.207Z,9.40
2023-02-13T05:53:12.179Z,9.50
2023-02-13T05:54:12.183Z,9.50
2023-02-13T05:55:12.171Z,9.80
2023-02-13T05:56:12.156Z,9.40
2023-02-13T05:57:12.116Z,9.10
2023-02-13T05:58:12.135Z,8.50
2023-02-13T05:59:12.126Z,8.90
2023-02-13T06:00:12.136Z,8.90
2023-02-13T06:01:12.076Z,8.70
2023-02-13T06:02:12.084Z,8.50
2023-02-13T06:03:12.070Z,8.80
2023-02-13T06:04:12.102Z,9.00
2023-02-13T06:05:12.053Z,10.30
2023-02-13T06:06:12.044Z,8.80
2023-02-13T06:07:12.014Z,9.20
2023-02-13T06:08:12.029Z,9.60
2023-02-13T06:09:11.995Z,9.10
2023-02-13T06:10:12.027Z,9.80
2023-02-13T06:11:11.972Z,10.60
2023-02-13T06:12:11.983Z,10.10
2023-02-13T06:13:11.946Z,10.90
2023-02-13T06:14:11.959Z,10.10
2023-02-13T06:15:11.942Z,11.20
2023-02-13T06:16:11.988Z,10.60
2023-02-13T06:17:11.899Z,10.70
2023-02-13T06:18:11.916Z,9.50
2023-02-13T06:19:11.881Z,10.10
2023-02-13T06:20:11.908Z,10.80
2023-02-13T06:21:11.859Z,10.60
2023-02-13T06:22:11.873Z,10.20
2023-02-13T06:23:11.839Z,10.30
2023-02-13T06:24:11.849Z,10.20
2023-02-13T06:25:11.835Z,10.70
2023-02-13T06:26:11.828Z,11.50
2023-02-13T06:27:11.795Z,10.80
2023-02-13T06:28:11.892Z,11.20
2023-02-13T06:29:11.776Z,11.40
2023-02-13T06:30:11.788Z,11.10
2023-02-13T06:31:11.925Z,12.30
2023-02-13T06:32:11.766Z,11.60
2023-02-13T06:33:11.734Z,11.30
2023-02-13T06:34:11.892Z,11.90
2023-02-13T06:35:11.723Z,11.70
2023-02-13T06:36:11.741Z,11.90
2023-02-13T06:37:11.690Z,12.30
2023-02-13T06:38:11.703Z,13.20
2023-02-13T06:39:11.668Z,12.70
2023-02-13T06:40:11.723Z,12.80
2023-02-13T06:41:11.674Z,11.80
2023-02-13T06:42:11.659Z,13.20
2023-02-13T06:43:11.628Z,12.80
2023-02-13T06:44:11.645Z,12.50
2023-02-13T06:45:11.619Z,13.00
2023-02-13T06:46:11.713Z,12.50
2023-02-13T06:47:11.584Z,12.60
2023-02-13T06:48:11.613Z,13.00
2023-02-13T06:49:11.566Z,13.00
2023-02-13T06:50:11.582Z,12.50
2023-02-13T06:51:11.561Z,12.90
2023-02-13T06:52:11.565Z,12.40
2023-02-13T06:53:11.523Z,12.20
2023-02-13T06:54:11.536Z,12.10
2023-02-13T06:55:11.505Z,12.70
2023-02-13T06:56:11.539Z,12.90
2023-02-13T06:57:11.483Z,13.50
2023-02-13T06:58:11.513Z,12.40
2023-02-13T06:59:11.462Z,11.80
2023-02-13T07:00:11.473Z,13.20
2023-02-13T07:01:11.509Z,12.10
2023-02-13T07:02:11.469Z,13.00
2023-02-13T07:03:11.494Z,13.00
2023-02-13T07:04:11.431Z,12.90
2023-02-13T07:05:11.398Z,13.60
2023-02-13T07:06:11.408Z,13.30
2023-02-13T07:07:11.498Z,13.80
2023-02-13T07:08:11.387Z,13.70
2023-02-13T07:09:11.353Z,13.80
2023-02-13T07:10:11.372Z,12.90
2023-02-13T07:11:11.332Z,13.60
2023-02-13T07:12:11.364Z,13.20
2023-02-13T07:13:11.326Z,14.00
2023-02-13T07:14:11.335Z,13.10
2023-02-13T07:15:11.294Z,13.40
2023-02-13T07:16:11.352Z,15.00
2023-02-13T07:17:11.290Z,14.30
2023-02-13T07:18:11.283Z,14.10
2023-02-13T07:19:11.248Z,13.80
2023-02-13T07:20:11.271Z,13.50
2023-02-13T07:21:11.232Z,14.60
2023-02-13T07:22:11.255Z,13.40
2023-02-13T07:23:11.215Z,13.70
2023-02-13T07:24:11.222Z,13.30
2023-02-13T07:25:11.195Z,13.40
2023-02-13T07:26:11.241Z,13.80
2023-02-13T07:27:11.178Z,13.40
2023-02-13T07:28:11.312Z,13.20
2023-02-13T07:29:12.392Z,14.10
2023-02-13T07:30:11.156Z,13.30
2023-02-13T07:31:11.278Z,14.20
2023-02-13T07:32:11.158Z,13.80
2023-02-13T07:33:12.796Z,13.30
2023-02-13T07:34:11.116Z,13.10
2023-02-13T07:35:11.084Z,12.60
2023-02-13T07:36:11.093Z,12.40
2023-02-13T07:37:11.067Z,13.20
2023-02-13T07:38:11.093Z,12.30
2023-02-13T07:39:11.042Z,14.10
2023-02-13T07:40:11.053Z,15.80
2023-02-13T07:41:11.017Z,13.50
2023-02-13T07:42:11.032Z,12.90
2023-02-13T07:43:11.011Z,13.50
2023-02-13T07:44:11.013Z,12.60
2023-02-13T07:45:10.978Z,12.20
2023-02-13T07:46:10.990Z,14.70
2023-02-13T07:47:10.959Z,13.50
2023-02-13T07:48:10.987Z,17.30
2023-02-13T07:49:10.936Z,13.80
2023-02-13T07:50:10.961Z,12.90
2023-02-13T07:51:10.920Z,16.20
2023-02-13T07:52:10.927Z,13.30
2023-02-13T07:53:10.912Z,12.90
2023-02-13T07:54:10.910Z,12.70
2023-02-13T07:55:10.875Z,12.40
2023-02-13T07:56:10.892Z,12.10
2023-02-13T07:57:10.858Z,11.90
2023-02-13T07:58:10.963Z,11.70
2023-02-13T07:59:10.831Z,12.50
2023-02-13T08:00:10.842Z,12.90
2023-02-13T08:01:10.818Z,12.40
2023-02-13T08:02:10.918Z,12.40
2023-02-13T08:03:10.982Z,11.60
2023-02-13T08:04:10.915Z,11.80
2023-02-13T08:05:10.768Z,10.70
2023-02-13T08:06:10.785Z,11.40
2023-02-13T08:07:10.752Z,11.70
2023-02-13T08:08:10.761Z,11.50
2023-02-13T08:09:10.934Z,11.70
2023-02-13T08:10:10.740Z,10.30
2023-02-13T08:11:10.706Z,12.50
2023-02-13T08:12:10.716Z,11.40
2023-02-13T08:13:10.684Z,10.80
2023-02-13T08:14:10.713Z,12.10
2023-02-13T08:15:10.660Z,11.30
2023-02-13T08:16:10.690Z,11.40
2023-02-13T08:17:10.640Z,10.80
2023-02-13T08:18:10.653Z,10.30
2023-02-13T08:19:10.633Z,10.40
2023-02-13T08:20:10.628Z,9.10
2023-02-13T08:21:10.597Z,9.00
2023-02-13T08:22:10.607Z,9.40
2023-02-13T08:23:10.717Z,9.60
2023-02-13T08:24:10.601Z,10.60
2023-02-13T08:25:10.550Z,9.50
2023-02-13T08:26:10.562Z,9.80
2023-02-13T08:27:10.530Z,9.60
2023-02-13T08:28:10.595Z,8.90
2023-02-13T08:29:10.535Z,9.10
2023-02-13T08:30:10.528Z,8.90
2023-02-13T08:31:11.869Z,8.70
2023-02-13T08:32:10.567Z,9.10
2023-02-13T08:33:10.489Z,10.20
2023-02-13T08:34:10.503Z,8.50
2023-02-13T08:35:10.466Z,8.70
2023-02-13T08:36:10.433Z,8.70
2023-02-13T08:37:10.453Z,9.10
2023-02-13T08:38:10.415Z,9.10
2023-02-13T08:39:10.422Z,8.50
2023-02-13T08:40:10.404Z,8.70
2023-02-13T08:41:10.401Z,9.80
2023-02-13T08:42:13.933Z,9.10
2023-02-13T08:43:10.396Z,9.10
2023-02-13T08:44:10.345Z,9.70
2023-02-13T08:45:10.428Z,9.20
2023-02-13T08:46:10.412Z,10.00
2023-02-13T08:47:10.342Z,9.50
2023-02-13T08:48:10.324Z,9.30
2023-02-13T08:49:10.318Z,10.00
2023-02-13T08:50:10.302Z,10.30
2023-02-13T08:51:10.297Z,10.10
2023-02-13T08:52:10.263Z,10.40
2023-02-13T08:53:10.277Z,10.50
2023-02-13T08:54:10.243Z,10.40
2023-02-13T08:55:10.269Z,10.20
2023-02-13T08:56:10.220Z,10.00
2023-02-13T08:57:10.232Z,10.70
2023-02-13T08:58:10.206Z,10.80
2023-02-13T08:59:10.216Z,9.90
2023-02-13T09:00:10.198Z,10.70
2023-02-13T09:01:10.217Z,9.60
2023-02-13T09:02:10.188Z,9.70
2023-02-13T09:03:10.579Z,9.90
2023-02-13T09:04:10.176Z,9.30
2023-02-13T09:05:10.173Z,9.50
2023-02-13T09:06:10.120Z,9.90
2023-02-13T09:07:10.125Z,8.70
2023-02-13T09:08:10.096Z,9.60
2023-02-13T09:09:10.106Z,8.90
2023-02-13T09:10:10.071Z,9.80
2023-02-13T09:11:10.114Z,10.40
2023-02-13T09:12:10.054Z,9.40
2023-02-13T09:13:10.065Z,9.80
2023-02-13T09:14:10.027Z,10.30
2023-02-13T09:15:10.040Z,13.20
2023-02-13T09:16:10.037Z,10.10
2023-02-13T09:17:10.027Z,9.80
2023-02-13T09:18:09.988Z,9.70
2023-02-13T09:19:10.005Z,11.00
2023-02-13T09:20:09.964Z,9.80
2023-02-13T09:21:10.001Z,10.80
2023-02-13T09:22:09.953Z,10.30
2023-02-13T09:23:09.960Z,10.00
2023-02-13T09:24:09.925Z,10.50
2023-02-13T09:25:09.938Z,9.50
2023-02-13T09:26:09.930Z,10.10
2023-02-13T09:27:09.917Z,11.60
2023-02-13T09:28:09.925Z,11.30
2023-02-13T09:29:09.895Z,9.40
2023-02-13T09:30:09.872Z,9.80
2023-02-13T09:31:10.020Z,9.60
2023-02-13T09:32:09.895Z,9.60
2023-02-13T09:33:09.855Z,9.50
2023-02-13T09:34:09.818Z,10.00
2023-02-13T09:35:09.837Z,7.90
2023-02-13T09:36:09.810Z,8.60
2023-02-13T09:37:09.826Z,8.40
2023-02-13T09:38:09.776Z,9.00
2023-02-13T09:39:09.791Z,8.20
2023-02-13T09:40:09.755Z,7.90
2023-02-13T09:41:09.775Z,8.90
2023-02-13T09:42:09.750Z,8.70
2023-02-13T09:43:09.750Z,8.00
2023-02-13T09:44:09.714Z,9.50
2023-02-13T09:45:09.729Z,8.10
2023-02-13T09:46:09.729Z,9.10
2023-02-13T09:47:09.727Z,7.90
2023-02-13T09:48:09.673Z,7.80
2023-02-13T09:49:09.685Z,8.10
2023-02-13T09:50:09.653Z,8.90
2023-02-13T09:51:09.668Z,8.20
2023-02-13T09:52:09.655Z,7.40
2023-02-13T09:53:09.638Z,7.50
2023-02-13T09:54:09.605Z,8.40
2023-02-13T09:55:09.620Z,7.70
2023-02-13T09:56:09.590Z,8.30
2023-02-13T09:57:09.608Z,9.20
2023-02-13T09:58:09.578Z,8.10
2023-02-13T09:59:09.578Z,8.10
2023-02-13T10:00:09.546Z,7.40
2023-02-13T10:01:09.638Z,8.50
2023-02-13T10:02:09.521Z,8.20
2023-02-13T10:03:09.546Z,8.50
2023-02-13T10:04:09.497Z,8.30
2023-02-13T10:05:09.576Z,7.90
2023-02-13T10:06:09.489Z,8.40
2023-02-13T10:07:09.491Z,9.10
2023-02-13T10:08:09.471Z,8.20
2023-02-13T10:09:09.470Z,8.10
2023-02-13T10:10:09.433Z,8.60
2023-02-13T10:11:09.457Z,8.70
2023-02-13T10:12:09.420Z,8.10
2023-02-13T10:13:09.447Z,7.90
2023-02-13T10:14:09.394Z,8.40
2023-02-13T10:15:09.409Z,8.50
2023-02-13T10:16:09.484Z,8.00
2023-02-13T10:17:09.388Z,8.30
2023-02-13T10:18:09.347Z,8.40
2023-02-13T10:19:09.372Z,8.30
2023-02-13T10:20:09.323Z,7.80
2023-02-13T10:21:09.341Z,8.80
2023-02-13T10:22:09.313Z,9.00
2023-02-13T10:23:09.319Z,8.00
2023-02-13T10:24:09.306Z,8.60
2023-02-13T10:25:09.300Z,8.40
2023-02-13T10:26:09.298Z,8.90
2023-02-13T10:27:09.277Z,8.70
2023-02-13T10:28:09.310Z,8.60
2023-02-13T10:29:09.270Z,10.20
2023-02-13T10:30:09.244Z,9.30
2023-02-13T10:31:09.487Z,8.70
2023-02-13T10:32:09.370Z,8.40
2023-02-13T10:33:09.208Z,9.00
2023-02-13T10:34:09.183Z,8.80
2023-02-13T10:35:09.216Z,9.60
2023-02-13T10:36:09.166Z,9.70
2023-02-13T10:37:09.755Z,8.60
2023-02-13T10:38:09.132Z,9.80
2023-02-13T10:39:09.144Z,10.30
2023-02-13T10:40:09.112Z,11.00
2023-02-13T10:41:09.163Z,9.10
2023-02-13T10:42:09.103Z,9.00
2023-02-13T10:43:09.106Z,9.70
2023-02-13T10:44:09.070Z,11.20
2023-02-13T10:45:09.087Z,10.30
2023-02-13T10:46:09.088Z,9.40
2023-02-13T10:47:09.061Z,11.30
2023-02-13T10:48:09.033Z,11.00
2023-02-13T10:49:09.036Z,9.30
2023-02-13T10:50:09.008Z,10.60
2023-02-13T10:51:09.029Z,9.30
2023-02-13T10:52:08.982Z,9.20
2023-02-13T10:53:08.998Z,10.30
2023-02-13T10:54:08.966Z,9.20
2023-02-13T10:55:08.977Z,11.90
2023-02-13T10:56:08.962Z,10.70
2023-02-13T10:57:08.952Z,10.00
2023-02-13T10:58:08.914Z,10.80
2023-02-13T10:59:08.946Z,9.50
2023-02-13T11:00:08.894Z,10.90
2023-02-13T11:01:08.917Z,10.80
2023-02-13T11:02:08.891Z,11.10
2023-02-13T11:03:08.885Z,9.20
2023-02-13T11:04:08.879Z,10.20
2023-02-13T11:05:08.866Z,9.20
2023-02-13T11:06:08.824Z,10.40
2023-02-13T11:07:08.878Z,10.80
2023-02-13T11:08:08.802Z,9.20
2023-02-13T11:09:08.818Z,10.80
2023-02-13T11:10:08.783Z,9.10
2023-02-13T11:11:08.791Z,9.00
2023-02-13T11:12:08.875Z,9.70
2023-02-13T11:13:08.768Z,10.60
2023-02-13T11:14:08.739Z,9.10
2023-02-13T11:15:08.752Z,9.20
2023-02-13T11:16:08.756Z,9.20
2023-02-13T11:17:08.899Z,8.10
2023-02-13T11:18:08.694Z,8.10
2023-02-13T11:19:08.705Z,8.10
2023-02-13T11:20:08.674Z,8.40
2023-02-13T11:21:08.833Z,8.20
2023-02-13T11:22:08.699Z,7.70
2023-02-13T11:23:08.661Z,7.60
2023-02-13T11:24:08.628Z,8.20
2023-02-13T11:25:08.645Z,8.50
2023-02-13T11:26:08.622Z,7.70
2023-02-13T11:27:08.655Z,8.30
2023-02-13T11:28:08.660Z,8.90
2023-02-13T11:29:08.596Z,7.70
2023-02-13T11:30:08.565Z,7.70
2023-02-13T11:31:08.736Z,7.60
2023-02-13T11:32:08.712Z,7.80
2023-02-13T11:33:08.566Z,7.90
2023-02-13T11:34:08.518Z,8.50
2023-02-13T11:35:08.529Z,8.30
2023-02-13T11:36:08.523Z,7.80
2023-02-13T11:37:08.505Z,7.50
2023-02-13T11:38:08.488Z,7.10
2023-02-13T11:39:08.499Z,7.60
2023-02-13T11:40:08.452Z,7.80
2023-02-13T11:41:08.463Z,8.70
2023-02-13T11:42:08.429Z,8.80
2023-02-13T11:43:08.460Z,8.90
2023-02-13T11:44:08.411Z,7.50
2023-02-13T11:45:08.427Z,9.10
2023-02-13T11:46:08.456Z,7.30
2023-02-13T11:47:08.399Z,8.90
2023-02-13T11:48:08.382Z,7.40
2023-02-13T11:49:08.377Z,7.70
2023-02-13T11:50:08.346Z,7.30
2023-02-13T11:51:08.365Z,9.10
2023-02-13T11:52:08.327Z,8.70
2023-02-13T11:53:08.353Z,8.80
2023-02-13T11:54:08.302Z,8.50
2023-02-13T11:55:08.313Z,7.70
2023-02-13T11:56:08.292Z,7.10
2023-02-13T11:57:08.383Z,8.20
2023-02-13T11:58:08.281Z,8.80
2023-02-13T11:59:08.284Z,10.60
2023-02-13T12:00:08.243Z,8.30
2023-02-13T12:01:08.254Z,8.60
2023-02-13T12:02:08.221Z,7.60
2023-02-13T12:03:08.404Z,8.70
2023-02-13T12:04:08.212Z,8.40
2023-02-13T12:05:08.207Z,7.60
2023-02-13T12:06:08.200Z,8.90
2023-02-13T12:07:08.186Z,8.90
2023-02-13T12:08:08.155Z,9.20
2023-02-13T12:09:08.182Z,9.80
2023-02-13T12:10:08.130Z,8.80
2023-02-13T12:11:08.144Z,9.60
2023-02-13T12:12:08.111Z,9.00
2023-02-13T12:13:08.121Z,9.00
2023-02-13T12:14:08.104Z,9.30
2023-02-13T12:15:08.101Z,9.70
2023-02-13T12:16:08.116Z,9.40
2023-02-13T12:17:08.705Z,9.50
2023-02-13T12:18:08.045Z,10.70
2023-02-13T12:19:08.075Z,10.00
2023-02-13T12:20:08.026Z,10.30
2023-02-13T12:21:08.040Z,10.70
2023-02-13T12:22:08.008Z,9.40
2023-02-13T12:23:08.027Z,10.50
2023-02-13T12:24:07.999Z,11.40
2023-02-13T12:25:07.994Z,10.60
2023-02-13T12:26:07.962Z,10.60
2023-02-13T12:27:07.971Z,10.40
2023-02-13T12:28:08.041Z,11.20
2023-02-13T12:29:07.991Z,11.00
2023-02-13T12:30:07.928Z,10.40
2023-02-13T12:31:07.972Z,10.80
2023-02-13T12:32:07.894Z,11.80
2023-02-13T12:33:07.903Z,11.30
2023-02-13T12:34:07.888Z,11.50
2023-02-13T12:35:07.992Z,11.00
2023-02-13T12:36:07.853Z,11.00
2023-02-13T12:37:07.876Z,10.70
2023-02-13T12:38:07.832Z,12.00
2023-02-13T12:39:07.838Z,12.10
2023-02-13T12:40:08.236Z,13.10
2023-02-13T12:41:07.835Z,11.00
2023-02-13T12:42:07.789Z,12.00
2023-02-13T12:43:07.800Z,11.50
2023-02-13T12:44:07.763Z,11.20
2023-02-13T12:45:07.773Z,11.90
2023-02-13T12:46:07.839Z,11.60
2023-02-13T12:47:07.739Z,12.70
2023-02-13T12:48:07.744Z,12.00
2023-02-13T12:49:07.706Z,11.60
2023-02-13T12:50:07.726Z,11.60
2023-02-13T12:51:07.700Z,12.20
2023-02-13T12:52:07.720Z,11.20
2023-02-13T12:53:07.676Z,11.30
2023-02-13T12:54:07.687Z,10.60
2023-02-13T12:55:07.642Z,10.30
2023-02-13T12:56:07.656Z,10.60
2023-02-13T12:57:07.635Z,11.10
2023-02-13T12:58:07.633Z,11.80
2023-02-13T12:59:07.599Z,12.70
2023-02-13T13:00:07.613Z,10.90
2023-02-13T13:01:07.636Z,10.60
2023-02-13T13:02:07.673Z,10.40
2023-02-13T13:03:07.564Z,10.20